sensor_id;sensor_type;location;lat;lon;timestamp;P1;durP1;ratioP1;P2;durP2;ratioP2
34142;SDS011;20419;10.658;106.724;2023-12-07T00:00:32;7.90;;;5.63;;
34142;SDS011;20419;10.658;106.724;2023-12-07T00:02:59;8.63;;;5.50;;
34142;SDS011;20419;10.658;106.724;2023-12-07T00:05:27;10.13;;;5.15;;
34142;SDS011;20419;10.658;106.724;2023-12-07T00:07:53;8.90;;;5.80;;
34142;SDS011;20419;10.658;106.724;2023-12-07T00:10:20;11.50;;;6.57;;
34142;SDS011;20419;10.658;106.724;2023-12-07T00:12:47;10.27;;;6.28;;
34142;SDS011;20419;10.658;106.724;2023-12-07T00:15:14;8.60;;;5.43;;
34142;SDS011;20419;10.658;106.724;2023-12-07T00:17:41;9.10;;;5.88;;
34142;SDS011;20419;10.658;106.724;2023-12-07T00:20:08;8.45;;;5.60;;
34142;SDS011;20419;10.658;106.724;2023-12-07T00:22:36;9.40;;;6.43;;
34142;SDS011;20419;10.658;106.724;2023-12-07T00:25:04;10.82;;;6.03;;
34142;SDS011;20419;10.658;106.724;2023-12-07T00:27:31;9.98;;;6.25;;
34142;SDS011;20419;10.658;106.724;2023-12-07T00:29:57;11.45;;;5.80;;
34142;SDS011;20419;10.658;106.724;2023-12-07T00:32:24;9.98;;;5.55;;
34142;SDS011;20419;10.658;106.724;2023-12-07T00:34:52;9.80;;;6.57;;
34142;SDS011;20419;10.658;106.724;2023-12-07T00:37:19;9.10;;;6.15;;
34142;SDS011;20419;10.658;106.724;2023-12-07T00:39:46;8.43;;;6.22;;
34142;SDS011;20419;10.658;106.724;2023-12-07T00:42:13;9.35;;;6.80;;
34142;SDS011;20419;10.658;106.724;2023-12-07T00:44:40;15.30;;;6.90;;
34142;SDS011;20419;10.658;106.724;2023-12-07T00:47:07;9.98;;;5.85;;
34142;SDS011;20419;10.658;106.724;2023-12-07T00:49:37;8.60;;;6.03;;
34142;SDS011;20419;10.658;106.724;2023-12-07T00:52:05;9.10;;;6.40;;
34142;SDS011;20419;10.658;106.724;2023-12-07T00:54:32;8.18;;;5.85;;
34142;SDS011;20419;10.658;106.724;2023-12-07T00:56:58;9.68;;;5.55;;
34142;SDS011;20419;10.658;106.724;2023-12-07T00:59:25;10.70;;;6.32;;
34142;SDS011;20419;10.658;106.724;2023-12-07T01:01:52;8.77;;;6.05;;
34142;SDS011;20419;10.658;106.724;2023-12-07T01:04:19;10.32;;;5.65;;
34142;SDS011;20419;10.658;106.724;2023-12-07T01:06:46;9.55;;;6.75;;
34142;SDS011;20419;10.658;106.724;2023-12-07T01:09:13;10.05;;;6.68;;
34142;SDS011;20419;10.658;106.724;2023-12-07T01:11:39;9.88;;;6.05;;
34142;SDS011;20419;10.658;106.724;2023-12-07T01:14:06;9.40;;;6.03;;
34142;SDS011;20419;10.658;106.724;2023-12-07T01:16:33;8.77;;;5.95;;
34142;SDS011;20419;10.658;106.724;2023-12-07T01:19:00;9.43;;;5.97;;
34142;SDS011;20419;10.658;106.724;2023-12-07T01:21:26;9.25;;;6.22;;
34142;SDS011;20419;10.658;106.724;2023-12-07T01:23:54;9.60;;;5.40;;
34142;SDS011;20419;10.658;106.724;2023-12-07T01:26:21;9.00;;;5.97;;
34142;SDS011;20419;10.658;106.724;2023-12-07T01:28:47;8.43;;;5.50;;
34142;SDS011;20419;10.658;106.724;2023-12-07T01:31:15;9.02;;;5.85;;
34142;SDS011;20419;10.658;106.724;2023-12-07T01:33:45;9.35;;;5.85;;
34142;SDS011;20419;10.658;106.724;2023-12-07T01:36:13;8.13;;;5.85;;
34142;SDS011;20419;10.658;106.724;2023-12-07T01:38:40;8.07;;;5.78;;
34142;SDS011;20419;10.658;106.724;2023-12-07T01:41:07;7.47;;;5.32;;
34142;SDS011;20419;10.658;106.724;2023-12-07T01:43:34;7.47;;;5.43;;
34142;SDS011;20419;10.658;106.724;2023-12-07T01:46:01;8.60;;;5.60;;
34142;SDS011;20419;10.658;106.724;2023-12-07T01:48:28;10.43;;;6.07;;
34142;SDS011;20419;10.658;106.724;2023-12-07T01:50:56;7.72;;;5.70;;
34142;SDS011;20419;10.658;106.724;2023-12-07T01:53:23;8.00;;;5.60;;
34142;SDS011;20419;10.658;106.724;2023-12-07T01:55:51;6.97;;;5.13;;
34142;SDS011;20419;10.658;106.724;2023-12-07T01:58:18;9.15;;;5.82;;
34142;SDS011;20419;10.658;106.724;2023-12-07T02:00:46;9.33;;;6.03;;
34142;SDS011;20419;10.658;106.724;2023-12-07T02:03:13;7.82;;;5.85;;
34142;SDS011;20419;10.658;106.724;2023-12-07T02:05:46;8.35;;;5.53;;
34142;SDS011;20419;10.658;106.724;2023-12-07T02:08:14;6.63;;;4.78;;
34142;SDS011;20419;10.658;106.724;2023-12-07T02:10:43;7.88;;;6.10;;
34142;SDS011;20419;10.658;106.724;2023-12-07T02:13:10;6.85;;;5.07;;
34142;SDS011;20419;10.658;106.724;2023-12-07T02:15:37;7.80;;;5.25;;
34142;SDS011;20419;10.658;106.724;2023-12-07T02:18:19;7.93;;;5.10;;
34142;SDS011;20419;10.658;106.724;2023-12-07T02:21:04;7.47;;;4.95;;
34142;SDS011;20419;10.658;106.724;2023-12-07T02:23:35;7.40;;;5.27;;
34142;SDS011;20419;10.658;106.724;2023-12-07T02:26:03;7.75;;;5.30;;
34142;SDS011;20419;10.658;106.724;2023-12-07T02:28:33;8.50;;;5.10;;
34142;SDS011;20419;10.658;106.724;2023-12-07T02:31:00;7.25;;;4.78;;
34142;SDS011;20419;10.658;106.724;2023-12-07T02:33:26;7.10;;;5.18;;
34142;SDS011;20419;10.658;106.724;2023-12-07T02:35:53;8.25;;;5.35;;
34142;SDS011;20419;10.658;106.724;2023-12-07T02:38:21;7.68;;;5.25;;
34142;SDS011;20419;10.658;106.724;2023-12-07T02:40:49;8.48;;;5.53;;
34142;SDS011;20419;10.658;106.724;2023-12-07T02:43:16;7.63;;;5.38;;
34142;SDS011;20419;10.658;106.724;2023-12-07T02:45:43;8.68;;;5.63;;
34142;SDS011;20419;10.658;106.724;2023-12-07T02:48:10;7.22;;;5.50;;
34142;SDS011;20419;10.658;106.724;2023-12-07T02:50:36;7.22;;;5.22;;
34142;SDS011;20419;10.658;106.724;2023-12-07T02:53:03;7.43;;;4.90;;
34142;SDS011;20419;10.658;106.724;2023-12-07T02:55:30;8.68;;;5.85;;
34142;SDS011;20419;10.658;106.724;2023-12-07T02:57:57;8.07;;;5.43;;
34142;SDS011;20419;10.658;106.724;2023-12-07T03:00:24;8.07;;;5.40;;
34142;SDS011;20419;10.658;106.724;2023-12-07T03:02:50;7.07;;;5.20;;
34142;SDS011;20419;10.658;106.724;2023-12-07T03:05:17;7.38;;;5.32;;
34142;SDS011;20419;10.658;106.724;2023-12-07T03:07:45;8.32;;;5.80;;
34142;SDS011;20419;10.658;106.724;2023-12-07T03:10:12;8.38;;;5.63;;
34142;SDS011;20419;10.658;106.724;2023-12-07T03:12:39;7.55;;;5.22;;
34142;SDS011;20419;10.658;106.724;2023-12-07T03:15:05;7.00;;;5.07;;
34142;SDS011;20419;10.658;106.724;2023-12-07T03:17:32;7.72;;;5.38;;
34142;SDS011;20419;10.658;106.724;2023-12-07T03:19:59;6.18;;;5.18;;
34142;SDS011;20419;10.658;106.724;2023-12-07T03:22:26;7.07;;;5.53;;
34142;SDS011;20419;10.658;106.724;2023-12-07T03:24:52;7.60;;;5.45;;
34142;SDS011;20419;10.658;106.724;2023-12-07T03:27:20;7.75;;;5.60;;
34142;SDS011;20419;10.658;106.724;2023-12-07T03:29:46;9.00;;;5.80;;
34142;SDS011;20419;10.658;106.724;2023-12-07T03:32:13;7.30;;;5.57;;
34142;SDS011;20419;10.658;106.724;2023-12-07T03:34:40;8.30;;;5.47;;
34142;SDS011;20419;10.658;106.724;2023-12-07T03:37:07;7.47;;;5.05;;
34142;SDS011;20419;10.658;106.724;2023-12-07T03:39:33;9.10;;;5.88;;
34142;SDS011;20419;10.658;106.724;2023-12-07T03:42:00;7.47;;;5.18;;
34142;SDS011;20419;10.658;106.724;2023-12-07T03:44:27;7.70;;;5.47;;
34142;SDS011;20419;10.658;106.724;2023-12-07T03:46:54;8.48;;;5.45;;
34142;SDS011;20419;10.658;106.724;2023-12-07T03:49:21;6.78;;;4.97;;
34142;SDS011;20419;10.658;106.724;2023-12-07T03:51:48;8.02;;;5.57;;
34142;SDS011;20419;10.658;106.724;2023-12-07T03:54:15;7.57;;;5.85;;
34142;SDS011;20419;10.658;106.724;2023-12-07T03:56:41;7.07;;;5.00;;
34142;SDS011;20419;10.658;106.724;2023-12-07T03:59:08;7.57;;;5.40;;
34142;SDS011;20419;10.658;106.724;2023-12-07T04:01:35;8.57;;;5.47;;
34142;SDS011;20419;10.658;106.724;2023-12-07T04:04:02;7.72;;;5.57;;
34142;SDS011;20419;10.658;106.724;2023-12-07T04:06:31;7.38;;;5.68;;
34142;SDS011;20419;10.658;106.724;2023-12-07T04:08:58;8.27;;;5.85;;
34142;SDS011;20419;10.658;106.724;2023-12-07T04:11:25;7.07;;;5.00;;
34142;SDS011;20419;10.658;106.724;2023-12-07T04:13:52;8.40;;;5.15;;
34142;SDS011;20419;10.658;106.724;2023-12-07T04:33:11;7.57;;;5.57;;
34142;SDS011;20419;10.658;106.724;2023-12-07T04:35:38;6.82;;;5.53;;
34142;SDS011;20419;10.658;106.724;2023-12-07T04:38:05;8.07;;;5.53;;
34142;SDS011;20419;10.658;106.724;2023-12-07T04:40:32;8.25;;;5.40;;
34142;SDS011;20419;10.658;106.724;2023-12-07T04:42:59;7.00;;;5.30;;
34142;SDS011;20419;10.658;106.724;2023-12-07T04:45:26;8.93;;;6.15;;
34142;SDS011;20419;10.658;106.724;2023-12-07T04:47:52;7.82;;;5.53;;
34142;SDS011;20419;10.658;106.724;2023-12-07T04:50:19;8.60;;;5.95;;
34142;SDS011;20419;10.658;106.724;2023-12-07T04:52:46;7.30;;;5.53;;
34142;SDS011;20419;10.658;106.724;2023-12-07T04:55:13;8.00;;;6.10;;
34142;SDS011;20419;10.658;106.724;2023-12-07T04:57:41;7.70;;;5.72;;
34142;SDS011;20419;10.658;106.724;2023-12-07T05:00:08;7.80;;;5.65;;
34142;SDS011;20419;10.658;106.724;2023-12-07T05:02:35;7.90;;;5.55;;
34142;SDS011;20419;10.658;106.724;2023-12-07T05:05:03;7.40;;;5.63;;
34142;SDS011;20419;10.658;106.724;2023-12-07T05:07:30;7.43;;;5.30;;
34142;SDS011;20419;10.658;106.724;2023-12-07T05:09:57;8.13;;;5.85;;
34142;SDS011;20419;10.658;106.724;2023-12-07T05:12:24;7.68;;;5.65;;
34142;SDS011;20419;10.658;106.724;2023-12-07T05:14:51;6.63;;;4.93;;
34142;SDS011;20419;10.658;106.724;2023-12-07T05:17:18;8.65;;;5.95;;
34142;SDS011;20419;10.658;106.724;2023-12-07T05:19:45;9.02;;;7.15;;
34142;SDS011;20419;10.658;106.724;2023-12-07T05:22:13;10.88;;;8.75;;
34142;SDS011;20419;10.658;106.724;2023-12-07T05:24:41;12.10;;;10.23;;
34142;SDS011;20419;10.658;106.724;2023-12-07T05:27:07;13.80;;;10.73;;
34142;SDS011;20419;10.658;106.724;2023-12-07T05:29:34;12.60;;;11.30;;
34142;SDS011;20419;10.658;106.724;2023-12-07T05:32:01;16.40;;;13.23;;
34142;SDS011;20419;10.658;106.724;2023-12-07T05:34:29;16.30;;;14.03;;
34142;SDS011;20419;10.658;106.724;2023-12-07T05:36:56;18.55;;;14.80;;
34142;SDS011;20419;10.658;106.724;2023-12-07T05:39:22;17.63;;;15.35;;
34142;SDS011;20419;10.658;106.724;2023-12-07T05:41:49;20.48;;;15.23;;
34142;SDS011;20419;10.658;106.724;2023-12-07T05:44:16;20.33;;;16.13;;
34142;SDS011;20419;10.658;106.724;2023-12-07T05:46:47;21.45;;;17.40;;
34142;SDS011;20419;10.658;106.724;2023-12-07T05:49:14;22.92;;;18.25;;
34142;SDS011;20419;10.658;106.724;2023-12-07T05:51:41;19.98;;;17.02;;
34142;SDS011;20419;10.658;106.724;2023-12-07T05:54:08;19.25;;;16.58;;
34142;SDS011;20419;10.658;106.724;2023-12-07T05:56:35;21.95;;;17.95;;
34142;SDS011;20419;10.658;106.724;2023-12-07T05:59:01;19.58;;;16.42;;
34142;SDS011;20419;10.658;106.724;2023-12-07T06:01:28;20.60;;;17.63;;
34142;SDS011;20419;10.658;106.724;2023-12-07T06:03:55;20.17;;;17.63;;
34142;SDS011;20419;10.658;106.724;2023-12-07T06:06:22;23.35;;;18.70;;
34142;SDS011;20419;10.658;106.724;2023-12-07T06:08:49;23.15;;;19.38;;
34142;SDS011;20419;10.658;106.724;2023-12-07T06:11:16;22.67;;;18.40;;
34142;SDS011;20419;10.658;106.724;2023-12-07T06:13:43;32.45;;;19.77;;
34142;SDS011;20419;10.658;106.724;2023-12-07T06:16:13;24.17;;;19.88;;
34142;SDS011;20419;10.658;106.724;2023-12-07T06:18:41;23.30;;;19.55;;
34142;SDS011;20419;10.658;106.724;2023-12-07T06:21:07;24.27;;;19.67;;
34142;SDS011;20419;10.658;106.724;2023-12-07T06:23:34;21.63;;;19.27;;
34142;SDS011;20419;10.658;106.724;2023-12-07T06:26:01;22.00;;;19.45;;
34142;SDS011;20419;10.658;106.724;2023-12-07T06:28:30;22.48;;;18.65;;
34142;SDS011;20419;10.658;106.724;2023-12-07T06:30:57;21.05;;;17.90;;
34142;SDS011;20419;10.658;106.724;2023-12-07T06:33:24;20.35;;;18.25;;
34142;SDS011;20419;10.658;106.724;2023-12-07T06:35:51;21.48;;;17.73;;
34142;SDS011;20419;10.658;106.724;2023-12-07T06:38:18;22.00;;;19.23;;
34142;SDS011;20419;10.658;106.724;2023-12-07T06:40:45;21.03;;;17.83;;
34142;SDS011;20419;10.658;106.724;2023-12-07T06:43:12;19.55;;;17.10;;
34142;SDS011;20419;10.658;106.724;2023-12-07T06:45:40;20.70;;;17.17;;
34142;SDS011;20419;10.658;106.724;2023-12-07T06:48:09;21.25;;;16.20;;
34142;SDS011;20419;10.658;106.724;2023-12-07T06:50:37;19.40;;;16.45;;
34142;SDS011;20419;10.658;106.724;2023-12-07T06:53:04;21.80;;;17.88;;
34142;SDS011;20419;10.658;106.724;2023-12-07T06:55:31;20.40;;;16.77;;
34142;SDS011;20419;10.658;106.724;2023-12-07T06:57:57;19.85;;;17.15;;
34142;SDS011;20419;10.658;106.724;2023-12-07T07:00:24;21.23;;;17.17;;
34142;SDS011;20419;10.658;106.724;2023-12-07T07:02:51;19.70;;;16.65;;
34142;SDS011;20419;10.658;106.724;2023-12-07T07:05:18;18.27;;;16.27;;
34142;SDS011;20419;10.658;106.724;2023-12-07T07:07:45;19.25;;;17.35;;
34142;SDS011;20419;10.658;106.724;2023-12-07T07:10:12;19.98;;;17.77;;
34142;SDS011;20419;10.658;106.724;2023-12-07T07:12:39;21.05;;;17.55;;
34142;SDS011;20419;10.658;106.724;2023-12-07T07:15:07;19.98;;;17.58;;
34142;SDS011;20419;10.658;106.724;2023-12-07T07:17:34;20.73;;;18.63;;
34142;SDS011;20419;10.658;106.724;2023-12-07T07:20:01;20.38;;;18.35;;
34142;SDS011;20419;10.658;106.724;2023-12-07T07:22:28;19.40;;;17.40;;
34142;SDS011;20419;10.658;106.724;2023-12-07T07:24:54;20.65;;;18.60;;
34142;SDS011;20419;10.658;106.724;2023-12-07T07:27:21;21.77;;;19.48;;
34142;SDS011;20419;10.658;106.724;2023-12-07T07:29:48;20.83;;;18.63;;
34142;SDS011;20419;10.658;106.724;2023-12-07T07:32:15;20.77;;;18.48;;
34142;SDS011;20419;10.658;106.724;2023-12-07T07:34:42;20.55;;;18.45;;
34142;SDS011;20419;10.658;106.724;2023-12-07T07:37:09;21.20;;;19.00;;
34142;SDS011;20419;10.658;106.724;2023-12-07T07:39:35;19.27;;;17.27;;
34142;SDS011;20419;10.658;106.724;2023-12-07T07:42:02;18.58;;;16.67;;
34142;SDS011;20419;10.658;106.724;2023-12-07T07:44:30;20.63;;;18.42;;
34142;SDS011;20419;10.658;106.724;2023-12-07T07:46:57;20.73;;;17.67;;
34142;SDS011;20419;10.658;106.724;2023-12-07T07:49:23;20.38;;;18.38;;
34142;SDS011;20419;10.658;106.724;2023-12-07T07:51:52;20.67;;;17.90;;
34142;SDS011;20419;10.658;106.724;2023-12-07T07:54:19;20.17;;;18.02;;
34142;SDS011;20419;10.658;106.724;2023-12-07T07:56:46;17.48;;;15.77;;
34142;SDS011;20419;10.658;106.724;2023-12-07T07:59:13;18.38;;;16.40;;
34142;SDS011;20419;10.658;106.724;2023-12-07T08:01:40;17.83;;;16.02;;
34142;SDS011;20419;10.658;106.724;2023-12-07T08:04:06;17.80;;;15.93;;
34142;SDS011;20419;10.658;106.724;2023-12-07T08:06:33;16.27;;;14.57;;
34142;SDS011;20419;10.658;106.724;2023-12-07T08:09:00;16.75;;;14.93;;
34142;SDS011;20419;10.658;106.724;2023-12-07T08:11:27;16.20;;;14.52;;
34142;SDS011;20419;10.658;106.724;2023-12-07T08:13:54;15.73;;;14.18;;
34142;SDS011;20419;10.658;106.724;2023-12-07T08:16:21;16.55;;;14.32;;
34142;SDS011;20419;10.658;106.724;2023-12-07T08:18:48;16.05;;;14.43;;
34142;SDS011;20419;10.658;106.724;2023-12-07T08:21:20;14.82;;;13.23;;
34142;SDS011;20419;10.658;106.724;2023-12-07T08:23:47;15.90;;;14.30;;
34142;SDS011;20419;10.658;106.724;2023-12-07T08:26:14;14.77;;;13.18;;
34142;SDS011;20419;10.658;106.724;2023-12-07T08:28:41;13.98;;;12.40;;
34142;SDS011;20419;10.658;106.724;2023-12-07T08:31:08;14.93;;;13.43;;
34142;SDS011;20419;10.658;106.724;2023-12-07T08:33:35;15.20;;;13.48;;
34142;SDS011;20419;10.658;106.724;2023-12-07T08:36:05;14.73;;;12.82;;
34142;SDS011;20419;10.658;106.724;2023-12-07T08:38:32;12.73;;;11.43;;
34142;SDS011;20419;10.658;106.724;2023-12-07T08:40:59;13.10;;;11.68;;
34142;SDS011;20419;10.658;106.724;2023-12-07T08:43:25;13.00;;;11.63;;
34142;SDS011;20419;10.658;106.724;2023-12-07T08:45:53;14.43;;;11.23;;
34142;SDS011;20419;10.658;106.724;2023-12-07T08:48:20;13.00;;;10.70;;
34142;SDS011;20419;10.658;106.724;2023-12-07T08:50:47;11.98;;;10.25;;
34142;SDS011;20419;10.658;106.724;2023-12-07T08:53:14;11.40;;;10.20;;
34142;SDS011;20419;10.658;106.724;2023-12-07T08:55:41;11.50;;;10.32;;
34142;SDS011;20419;10.658;106.724;2023-12-07T08:58:08;11.07;;;9.90;;
34142;SDS011;20419;10.658;106.724;2023-12-07T09:00:36;10.35;;;9.25;;
34142;SDS011;20419;10.658;106.724;2023-12-07T09:03:02;11.50;;;9.63;;
34142;SDS011;20419;10.658;106.724;2023-12-07T09:05:29;10.95;;;9.82;;
34142;SDS011;20419;10.658;106.724;2023-12-07T09:07:56;10.43;;;9.15;;
34142;SDS011;20419;10.658;106.724;2023-12-07T09:10:23;10.45;;;9.35;;
34142;SDS011;20419;10.658;106.724;2023-12-07T09:12:50;11.75;;;9.68;;
34142;SDS011;20419;10.658;106.724;2023-12-07T09:15:17;12.13;;;10.18;;
34142;SDS011;20419;10.658;106.724;2023-12-07T09:17:43;11.02;;;9.93;;
34142;SDS011;20419;10.658;106.724;2023-12-07T09:20:11;10.95;;;9.85;;
34142;SDS011;20419;10.658;106.724;2023-12-07T09:22:44;13.27;;;10.70;;
34142;SDS011;20419;10.658;106.724;2023-12-07T09:25:12;13.20;;;10.07;;
34142;SDS011;20419;10.658;106.724;2023-12-07T09:27:39;11.93;;;10.35;;
34142;SDS011;20419;10.658;106.724;2023-12-07T09:30:06;11.07;;;9.90;;
34142;SDS011;20419;10.658;106.724;2023-12-07T09:32:36;11.07;;;9.45;;
34142;SDS011;20419;10.658;106.724;2023-12-07T09:35:07;12.52;;;9.43;;
34142;SDS011;20419;10.658;106.724;2023-12-07T09:37:40;13.07;;;9.63;;
34142;SDS011;20419;10.658;106.724;2023-12-07T09:40:07;12.02;;;9.52;;
34142;SDS011;20419;10.658;106.724;2023-12-07T09:42:34;10.65;;;8.90;;
34142;SDS011;20419;10.658;106.724;2023-12-07T09:45:01;13.30;;;9.73;;
34142;SDS011;20419;10.658;106.724;2023-12-07T09:47:27;10.32;;;9.23;;
34142;SDS011;20419;10.658;106.724;2023-12-07T09:49:55;10.27;;;8.90;;
34142;SDS011;20419;10.658;106.724;2023-12-07T09:52:22;10.35;;;8.15;;
34142;SDS011;20419;10.658;106.724;2023-12-07T09:54:50;10.30;;;8.60;;
34142;SDS011;20419;10.658;106.724;2023-12-07T09:57:17;14.47;;;8.17;;
34142;SDS011;20419;10.658;106.724;2023-12-07T09:59:44;11.95;;;8.20;;
34142;SDS011;20419;10.658;106.724;2023-12-07T10:02:11;12.48;;;8.65;;
34142;SDS011;20419;10.658;106.724;2023-12-07T10:04:37;10.77;;;8.02;;
34142;SDS011;20419;10.658;106.724;2023-12-07T10:09:41;9.02;;;7.90;;
34142;SDS011;20419;10.658;106.724;2023-12-07T10:12:08;9.63;;;7.90;;
34142;SDS011;20419;10.658;106.724;2023-12-07T10:14:35;9.32;;;8.20;;
34142;SDS011;20419;10.658;106.724;2023-12-07T10:17:04;11.25;;;8.50;;
34142;SDS011;20419;10.658;106.724;2023-12-07T10:19:31;11.95;;;7.78;;
34142;SDS011;20419;10.658;106.724;2023-12-07T10:21:59;9.70;;;7.28;;
34142;SDS011;20419;10.658;106.724;2023-12-07T10:24:25;10.70;;;7.18;;
34142;SDS011;20419;10.658;106.724;2023-12-07T10:26:53;8.45;;;6.97;;
34142;SDS011;20419;10.658;106.724;2023-12-07T10:29:22;9.57;;;6.72;;
34142;SDS011;20419;10.658;106.724;2023-12-07T10:31:49;8.23;;;7.03;;
34142;SDS011;20419;10.658;106.724;2023-12-07T10:34:17;9.70;;;7.57;;
34142;SDS011;20419;10.658;106.724;2023-12-07T10:36:47;10.15;;;6.38;;
34142;SDS011;20419;10.658;106.724;2023-12-07T10:39:14;9.57;;;7.38;;
34142;SDS011;20419;10.658;106.724;2023-12-07T10:41:42;10.57;;;7.00;;
34142;SDS011;20419;10.658;106.724;2023-12-07T10:44:10;8.32;;;6.55;;
34142;SDS011;20419;10.658;106.724;2023-12-07T10:46:38;8.02;;;6.35;;
34142;SDS011;20419;10.658;106.724;2023-12-07T10:49:07;8.00;;;6.43;;
34142;SDS011;20419;10.658;106.724;2023-12-07T10:51:34;10.60;;;6.05;;
34142;SDS011;20419;10.658;106.724;2023-12-07T10:54:04;9.38;;;7.45;;
34142;SDS011;20419;10.658;106.724;2023-12-07T10:56:43;8.40;;;6.03;;
34142;SDS011;20419;10.658;106.724;2023-12-07T10:59:10;7.53;;;6.10;;
34142;SDS011;20419;10.658;106.724;2023-12-07T11:01:38;8.50;;;5.90;;
34142;SDS011;20419;10.658;106.724;2023-12-07T11:04:06;8.70;;;6.30;;
34142;SDS011;20419;10.658;106.724;2023-12-07T11:06:33;9.40;;;5.70;;
34142;SDS011;20419;10.658;106.724;2023-12-07T11:09:01;7.70;;;5.90;;
34142;SDS011;20419;10.658;106.724;2023-12-07T11:11:31;7.50;;;5.85;;
34142;SDS011;20419;10.658;106.724;2023-12-07T11:14:07;9.30;;;6.00;;
34142;SDS011;20419;10.658;106.724;2023-12-07T11:16:37;8.00;;;6.10;;
34142;SDS011;20419;10.658;106.724;2023-12-07T11:19:26;7.25;;;5.40;;
34142;SDS011;20419;10.658;106.724;2023-12-07T11:21:53;6.88;;;5.63;;
34142;SDS011;20419;10.658;106.724;2023-12-07T11:24:20;6.85;;;5.20;;
34142;SDS011;20419;10.658;106.724;2023-12-07T11:26:46;9.07;;;5.78;;
34142;SDS011;20419;10.658;106.724;2023-12-07T11:29:13;9.90;;;6.10;;
34142;SDS011;20419;10.658;106.724;2023-12-07T11:31:40;8.45;;;5.13;;
34142;SDS011;20419;10.658;106.724;2023-12-07T11:34:07;8.88;;;5.65;;
34142;SDS011;20419;10.658;106.724;2023-12-07T11:36:39;9.40;;;5.40;;
34142;SDS011;20419;10.658;106.724;2023-12-07T11:41:43;6.97;;;5.47;;
34142;SDS011;20419;10.658;106.724;2023-12-07T11:44:11;7.15;;;4.97;;
34142;SDS011;20419;10.658;106.724;2023-12-07T11:46:38;6.93;;;5.70;;
34142;SDS011;20419;10.658;106.724;2023-12-07T11:49:05;11.18;;;5.55;;
34142;SDS011;20419;10.658;106.724;2023-12-07T11:51:36;6.05;;;4.80;;
34142;SDS011;20419;10.658;106.724;2023-12-07T11:54:04;5.97;;;5.27;;
34142;SDS011;20419;10.658;106.724;2023-12-07T11:56:30;8.57;;;5.65;;
34142;SDS011;20419;10.658;106.724;2023-12-07T11:58:58;9.25;;;5.25;;
34142;SDS011;20419;10.658;106.724;2023-12-07T12:01:25;7.87;;;5.20;;
34142;SDS011;20419;10.658;106.724;2023-12-07T12:03:53;10.60;;;5.03;;
34142;SDS011;20419;10.658;106.724;2023-12-07T12:06:20;9.13;;;5.00;;
34142;SDS011;20419;10.658;106.724;2023-12-07T12:08:50;11.10;;;5.00;;
34142;SDS011;20419;10.658;106.724;2023-12-07T12:11:18;5.80;;;4.90;;
34142;SDS011;20419;10.658;106.724;2023-12-07T12:13:45;6.00;;;4.55;;
34142;SDS011;20419;10.658;106.724;2023-12-07T12:16:12;9.02;;;5.50;;
34142;SDS011;20419;10.658;106.724;2023-12-07T12:18:40;10.82;;;4.47;;
34142;SDS011;20419;10.658;106.724;2023-12-07T12:21:07;8.38;;;4.55;;
34142;SDS011;20419;10.658;106.724;2023-12-07T12:23:34;7.38;;;4.60;;
34142;SDS011;20419;10.658;106.724;2023-12-07T12:26:02;5.80;;;3.97;;
34142;SDS011;20419;10.658;106.724;2023-12-07T12:28:29;6.53;;;4.50;;
34142;SDS011;20419;10.658;106.724;2023-12-07T12:30:58;5.97;;;4.60;;
34142;SDS011;20419;10.658;106.724;2023-12-07T12:33:25;5.78;;;4.20;;
34142;SDS011;20419;10.658;106.724;2023-12-07T12:36:04;5.75;;;4.10;;
34142;SDS011;20419;10.658;106.724;2023-12-07T12:38:32;6.43;;;4.40;;
34142;SDS011;20419;10.658;106.724;2023-12-07T12:40:59;7.82;;;4.90;;
34142;SDS011;20419;10.658;106.724;2023-12-07T12:43:26;7.63;;;4.43;;
34142;SDS011;20419;10.658;106.724;2023-12-07T12:45:53;5.30;;;4.38;;
34142;SDS011;20419;10.658;106.724;2023-12-07T12:48:20;6.32;;;4.70;;
34142;SDS011;20419;10.658;106.724;2023-12-07T12:50:47;6.28;;;4.50;;
34142;SDS011;20419;10.658;106.724;2023-12-07T12:53:14;7.57;;;4.43;;
34142;SDS011;20419;10.658;106.724;2023-12-07T12:55:41;6.57;;;4.47;;
34142;SDS011;20419;10.658;106.724;2023-12-07T12:58:09;5.85;;;4.40;;
34142;SDS011;20419;10.658;106.724;2023-12-07T13:00:39;6.38;;;3.67;;
34142;SDS011;20419;10.658;106.724;2023-12-07T13:03:10;6.10;;;3.97;;
34142;SDS011;20419;10.658;106.724;2023-12-07T13:05:38;8.05;;;4.25;;
34142;SDS011;20419;10.658;106.724;2023-12-07T13:08:05;6.18;;;3.88;;
34142;SDS011;20419;10.658;106.724;2023-12-07T13:10:33;8.15;;;4.78;;
34142;SDS011;20419;10.658;106.724;2023-12-07T13:13:00;5.43;;;3.80;;
34142;SDS011;20419;10.658;106.724;2023-12-07T13:15:28;7.10;;;4.40;;
34142;SDS011;20419;10.658;106.724;2023-12-07T13:17:55;4.95;;;3.40;;
34142;SDS011;20419;10.658;106.724;2023-12-07T13:20:22;5.55;;;3.90;;
34142;SDS011;20419;10.658;106.724;2023-12-07T13:22:49;6.15;;;4.25;;
34142;SDS011;20419;10.658;106.724;2023-12-07T13:25:16;4.97;;;3.65;;
34142;SDS011;20419;10.658;106.724;2023-12-07T13:27:42;5.78;;;4.28;;
34142;SDS011;20419;10.658;106.724;2023-12-07T13:30:09;5.65;;;4.10;;
34142;SDS011;20419;10.658;106.724;2023-12-07T13:32:36;7.10;;;4.32;;
34142;SDS011;20419;10.658;106.724;2023-12-07T13:35:06;5.55;;;4.18;;
34142;SDS011;20419;10.658;106.724;2023-12-07T13:37:33;6.30;;;3.72;;
34142;SDS011;20419;10.658;106.724;2023-12-07T13:40:02;5.28;;;3.78;;
34142;SDS011;20419;10.658;106.724;2023-12-07T13:42:30;6.13;;;3.90;;
34142;SDS011;20419;10.658;106.724;2023-12-07T13:44:57;6.20;;;4.30;;
34142;SDS011;20419;10.658;106.724;2023-12-07T13:47:25;5.57;;;3.85;;
34142;SDS011;20419;10.658;106.724;2023-12-07T13:50:00;8.00;;;4.30;;
34142;SDS011;20419;10.658;106.724;2023-12-07T13:52:29;6.75;;;4.40;;
34142;SDS011;20419;10.658;106.724;2023-12-07T13:54:56;6.47;;;3.97;;
34142;SDS011;20419;10.658;106.724;2023-12-07T13:57:28;5.07;;;4.18;;
34142;SDS011;20419;10.658;106.724;2023-12-07T13:59:56;4.85;;;3.90;;
34142;SDS011;20419;10.658;106.724;2023-12-07T14:02:23;5.40;;;4.03;;
34142;SDS011;20419;10.658;106.724;2023-12-07T14:04:50;7.32;;;4.72;;
34142;SDS011;20419;10.658;106.724;2023-12-07T14:07:17;6.75;;;5.30;;
34142;SDS011;20419;10.658;106.724;2023-12-07T14:09:46;7.43;;;5.22;;
34142;SDS011;20419;10.658;106.724;2023-12-07T14:12:13;6.07;;;4.93;;
34142;SDS011;20419;10.658;106.724;2023-12-07T14:14:40;6.47;;;4.82;;
34142;SDS011;20419;10.658;106.724;2023-12-07T14:17:08;6.38;;;4.72;;
34142;SDS011;20419;10.658;106.724;2023-12-07T14:19:38;6.75;;;5.28;;
34142;SDS011;20419;10.658;106.724;2023-12-07T14:22:08;6.90;;;5.30;;
34142;SDS011;20419;10.658;106.724;2023-12-07T14:24:36;6.55;;;5.30;;
34142;SDS011;20419;10.658;106.724;2023-12-07T14:27:03;5.90;;;4.88;;
34142;SDS011;20419;10.658;106.724;2023-12-07T14:29:30;6.88;;;5.25;;
34142;SDS011;20419;10.658;106.724;2023-12-07T14:31:57;8.82;;;5.40;;
34142;SDS011;20419;10.658;106.724;2023-12-07T14:34:26;6.25;;;4.95;;
34142;SDS011;20419;10.658;106.724;2023-12-07T14:36:54;7.43;;;5.28;;